Time;durP1;ratioP1;P1;durP2;ratioP2;P2;SDS_P1;SDS_P2;PMS_P1;PMS_P2;Temp;Humidity;BMP_temperature;BMP_pressure;BME280_temperature;BME280_humidity;BME280_pressure;Samples;Min_cycle;Max_cycle;Signal;HPM_P1;HPM_P2
2023/12/16 00:02:02;;;;;;;13.02;2.03;;;7.00;99.90;;;;;;6150859;23;20028;-36
2023/12/16 00:04:28;;;;;;;7.78;1.90;;;7.00;99.90;;;;;;6175767;23;20093;-36
2023/12/16 00:06:54;;;;;;;9.82;2.00;;;7.10;99.90;;;;;;6176671;23;20021;-35
2023/12/16 00:09:19;;;;;;;9.38;1.95;;;7.10;99.90;;;;;;6150655;23;20354;-35
2023/12/16 00:11:45;;;;;;;10.52;2.15;;;7.10;99.90;;;;;;6177452;23;20460;-35
2023/12/16 00:14:11;;;;;;;9.00;2.42;;;7.00;99.90;;;;;;6176197;23;20021;-34
2023/12/16 00:16:36;;;;;;;10.10;2.47;;;7.10;99.90;;;;;;6177246;23;20183;-35
2023/12/16 00:19:02;;;;;;;6.55;2.03;;;7.00;99.90;;;;;;6151625;23;20056;-35
2023/12/16 00:21:27;;;;;;;9.23;2.13;;;7.00;99.90;;;;;;6176321;23;20353;-36
2023/12/16 00:23:53;;;;;;;8.88;1.70;;;7.00;99.90;;;;;;6177558;23;20498;-35
2023/12/16 00:26:19;;;;;;;7.20;1.90;;;7.00;99.90;;;;;;6177529;23;20703;-35
2023/12/16 00:28:44;;;;;;;6.47;1.70;;;7.00;99.90;;;;;;6177311;23;20025;-35
2023/12/16 00:31:10;;;;;;;9.98;2.10;;;7.00;99.90;;;;;;6176392;23;20021;-37
2023/12/16 00:33:36;;;;;;;5.45;1.50;;;7.00;99.90;;;;;;6176799;23;20017;-35
2023/12/16 00:36:01;;;;;;;5.20;1.40;;;7.00;99.90;;;;;;6176870;23;20025;-35
2023/12/16 00:38:27;;;;;;;4.90;1.33;;;7.00;99.90;;;;;;6178449;23;20021;-36
2023/12/16 00:40:53;;;;;;;6.63;1.45;;;7.00;99.90;;;;;;6178058;23;20101;-36
2023/12/16 00:43:18;;;;;;;5.85;1.60;;;7.00;99.90;;;;;;6177608;23;20036;-35
2023/12/16 00:45:44;;;;;;;6.03;1.83;;;7.00;99.90;;;;;;6179346;23;20068;-35
2023/12/16 00:48:10;;;;;;;8.25;1.63;;;7.00;99.90;;;;;;6178496;23;20021;-34
2023/12/16 00:50:38;;;;;;;8.02;1.70;;;6.90;99.90;;;;;;6178563;23;20466;-34
2023/12/16 00:53:04;;;;;;;8.57;1.70;;;6.90;99.90;;;;;;6179444;23;20028;-36
2023/12/16 00:55:29;;;;;;;8.82;2.00;;;6.80;99.90;;;;;;6177457;23;20025;-36
2023/12/16 00:57:55;;;;;;;11.40;1.90;;;6.80;99.90;;;;;;6179616;23;20364;-36
2023/12/16 01:00:21;;;;;;;8.07;1.95;;;6.80;99.90;;;;;;6178484;23;20017;-35
2023/12/16 01:02:46;;;;;;;6.32;1.48;;;6.70;99.90;;;;;;6178439;23;20021;-35
2023/12/16 01:05:12;;;;;;;10.43;2.00;;;6.70;99.90;;;;;;6177926;23;20371;-34
2023/12/16 01:07:37;;;;;;;6.97;1.95;;;6.70;99.90;;;;;;6179214;23;20457;-36
2023/12/16 01:10:03;;;;;;;8.00;1.88;;;6.60;99.90;;;;;;6179411;23;20021;-34
2023/12/16 01:12:29;;;;;;;7.72;2.22;;;6.60;99.90;;;;;;6152229;23;20040;-35
2023/12/16 01:14:55;;;;;;;8.13;1.70;;;6.60;99.90;;;;;;6179327;23;20064;-35
2023/12/16 01:17:20;;;;;;;9.45;1.92;;;6.50;99.90;;;;;;6179111;23;20013;-34
2023/12/16 01:19:47;;;;;;;7.97;1.40;;;6.50;99.90;;;;;;6180747;23;20056;-35
2023/12/16 01:22:13;;;;;;;10.75;1.77;;;6.50;99.90;;;;;;6178397;23;20066;-34
2023/12/16 01:24:38;;;;;;;9.52;1.85;;;6.40;99.90;;;;;;6178787;23;20863;-35
2023/12/16 01:27:05;;;;;;;11.60;1.60;;;6.40;99.90;;;;;;6178879;23;20368;-35
2023/12/16 01:29:30;;;;;;;10.05;1.80;;;6.30;99.90;;;;;;6178690;23;20488;-35
2023/12/16 01:31:56;;;;;;;8.60;1.58;;;6.30;99.90;;;;;;6179614;23;20025;-35
2023/12/16 01:34:22;;;;;;;8.00;2.00;;;6.20;99.90;;;;;;6176410;23;20107;-35
2023/12/16 01:36:47;;;;;;;12.82;2.15;;;6.20;99.90;;;;;;6180146;23;20021;-35
2023/12/16 01:39:13;;;;;;;8.25;1.95;;;6.20;99.90;;;;;;6178477;23;20169;-34
2023/12/16 01:41:39;;;;;;;6.55;1.88;;;6.20;99.90;;;;;;6177993;23;20029;-35
2023/12/16 01:44:04;;;;;;;8.27;1.65;;;6.10;99.90;;;;;;6178890;23;20052;-34
2023/12/16 01:46:32;;;;;;;8.48;2.47;;;6.10;99.90;;;;;;6177945;23;20334;-34
2023/12/16 01:48:58;;;;;;;6.22;1.48;;;6.20;99.90;;;;;;6178604;23;20357;-34
2023/12/16 01:51:24;;;;;;;7.78;1.60;;;6.10;99.90;;;;;;6178722;23;20029;-35
2023/12/16 01:53:50;;;;;;;7.78;1.55;;;6.10;99.90;;;;;;6177323;23;20016;-36
2023/12/16 01:56:16;;;;;;;12.13;2.03;;;6.10;99.90;;;;;;6153628;23;20068;-34
2023/12/16 01:58:43;;;;;;;8.93;1.77;;;6.10;99.90;;;;;;6176356;23;20477;-35
2023/12/16 02:01:08;;;;;;;12.32;1.70;;;6.10;99.90;;;;;;6178422;23;20020;-35
2023/12/16 02:03:36;;;;;;;10.10;2.05;;;6.10;99.90;;;;;;6177223;23;20033;-34
2023/12/16 02:06:03;;;;;;;9.55;2.22;;;6.00;99.90;;;;;;6177656;23;20357;-35
2023/12/16 02:08:29;;;;;;;7.40;1.67;;;6.00;99.90;;;;;;6175830;23;20055;-34
2023/12/16 02:10:55;;;;;;;11.07;1.77;;;6.00;99.90;;;;;;6178836;23;20020;-34
2023/12/16 02:13:23;;;;;;;7.78;2.00;;;5.90;99.90;;;;;;6177400;23;20012;-34
2023/12/16 02:15:49;;;;;;;9.35;2.10;;;5.90;99.90;;;;;;6178734;23;20505;-35
2023/12/16 02:18:15;;;;;;;7.93;1.90;;;5.90;99.90;;;;;;6178899;23;20051;-35
2023/12/16 02:20:41;;;;;;;6.68;1.85;;;5.80;99.90;;;;;;6177090;23;20032;-36
2023/12/16 02:23:14;;;;;;;10.02;2.33;;;5.80;99.90;;;;;;6178951;23;20483;-35
2023/12/16 02:25:42;;;;;;;8.27;2.30;;;5.80;99.90;;;;;;6175620;23;20025;-35
2023/12/16 02:28:08;;;;;;;7.38;1.90;;;5.80;99.90;;;;;;6179918;23;20107;-35
2023/12/16 02:30:34;;;;;;;4.75;1.90;;;5.70;99.90;;;;;;6177924;23;20460;-35
2023/12/16 02:32:59;;;;;;;7.88;1.90;;;5.70;99.90;;;;;;6178114;23;20396;-35
2023/12/16 02:35:25;;;;;;;7.30;1.90;;;5.70;99.90;;;;;;6176946;23;20048;-35
2023/12/16 02:37:51;;;;;;;9.85;2.03;;;5.70;99.90;;;;;;6151620;23;20013;-34
2023/12/16 02:40:17;;;;;;;10.60;2.20;;;5.70;99.90;;;;;;6176731;23;20023;-36
2023/12/16 02:42:42;;;;;;;14.05;2.38;;;5.70;99.90;;;;;;6178322;23;20017;-34
2023/12/16 02:45:08;;;;;;;11.80;2.10;;;5.70;99.90;;;;;;6178598;23;20017;-34
2023/12/16 02:47:34;;;;;;;11.27;2.63;;;5.70;99.90;;;;;;6177530;23;20025;-34
2023/12/16 02:50:00;;;;;;;9.32;1.75;;;5.70;99.90;;;;;;6177903;23;20032;-34
2023/12/16 02:52:26;;;;;;;6.90;1.80;;;5.70;99.90;;;;;;6177951;23;20016;-35
2023/12/16 02:54:51;;;;;;;10.48;1.85;;;5.70;99.90;;;;;;6149514;23;20356;-35
2023/12/16 02:57:17;;;;;;;10.00;2.15;;;5.70;99.90;;;;;;6177907;23;20024;-35
2023/12/16 02:59:43;;;;;;;11.18;2.63;;;5.70;99.90;;;;;;6176702;23;20029;-35
2023/12/16 03:02:08;;;;;;;10.55;2.17;;;5.70;99.90;;;;;;6178121;23;20025;-35
2023/12/16 03:04:34;;;;;;;8.77;1.83;;;5.80;99.90;;;;;;6176949;23;20025;-35
2023/12/16 03:07:00;;;;;;;8.05;2.22;;;5.80;99.90;;;;;;6176763;23;20392;-34
2023/12/16 03:09:26;;;;;;;9.15;1.75;;;5.80;99.90;;;;;;6176686;23;20070;-35
2023/12/16 03:11:52;;;;;;;12.75;2.35;;;5.80;99.90;;;;;;6177377;23;20036;-35
2023/12/16 03:14:17;;;;;;;9.68;1.90;;;5.80;99.90;;;;;;6176089;23;20028;-34
2023/12/16 03:16:44;;;;;;;12.43;2.03;;;5.80;99.90;;;;;;6176987;23;20095;-34
2023/12/16 03:19:10;;;;;;;8.48;1.80;;;5.80;99.90;;;;;;6177698;23;20083;-34
2023/12/16 03:21:36;;;;;;;8.80;2.25;;;5.70;99.90;;;;;;6177912;23;20087;-34
2023/12/16 03:24:03;;;;;;;9.50;1.95;;;5.70;99.90;;;;;;6176270;23;20096;-35
2023/12/16 03:26:29;;;;;;;8.75;1.83;;;5.70;99.90;;;;;;6176810;23;20054;-34
2023/12/16 03:28:55;;;;;;;10.38;1.85;;;5.70;99.90;;;;;;6150762;23;20017;-35
2023/12/16 03:31:21;;;;;;;8.70;2.45;;;5.70;99.90;;;;;;6177185;23;20389;-35
2023/12/16 03:33:47;;;;;;;9.52;1.67;;;5.70;99.90;;;;;;6176902;23;20083;-35
2023/12/16 03:36:13;;;;;;;9.38;1.80;;;5.60;99.90;;;;;;6176492;23;20045;-40
2023/12/16 03:38:42;;;;;;;9.05;1.55;;;5.60;99.90;;;;;;6176066;23;20476;-35
2023/12/16 03:41:08;;;;;;;8.65;1.77;;;5.60;99.90;;;;;;6179979;23;20040;-35
2023/12/16 03:43:34;;;;;;;11.15;1.80;;;5.60;99.90;;;;;;6149575;23;20230;-34
2023/12/16 03:45:59;;;;;;;9.35;1.90;;;5.60;99.90;;;;;;6178288;23;20339;-35
2023/12/16 03:48:25;;;;;;;10.02;1.80;;;5.60;99.90;;;;;;6177282;23;20198;-34
2023/12/16 03:50:51;;;;;;;11.02;2.17;;;5.60;99.90;;;;;;6177052;23;20070;-34
2023/12/16 03:53:17;;;;;;;12.43;2.65;;;5.70;99.90;;;;;;6176811;23;20021;-34
2023/12/16 03:55:43;;;;;;;6.22;1.25;;;5.70;99.90;;;;;;6176794;23;20103;-34
2023/12/16 03:58:08;;;;;;;9.60;1.67;;;5.70;99.90;;;;;;6177418;23;20024;-34
2023/12/16 04:00:34;;;;;;;12.52;2.10;;;5.80;99.90;;;;;;6177909;23;20025;-35
2023/12/16 04:03:01;;;;;;;10.65;1.88;;;5.80;99.90;;;;;;6176651;23;20069;-35
2023/12/16 04:05:26;;;;;;;5.63;1.83;;;5.80;99.90;;;;;;6178235;23;20021;-35
2023/12/16 04:07:52;;;;;;;11.50;1.83;;;5.80;99.90;;;;;;6175814;23;20396;-34
2023/12/16 04:10:18;;;;;;;12.30;2.17;;;5.80;99.90;;;;;;6177087;23;20017;-36
2023/12/16 04:12:44;;;;;;;7.13;1.73;;;5.90;99.90;;;;;;6176906;23;20160;-40
2023/12/16 04:15:11;;;;;;;6.28;1.52;;;5.90;99.90;;;;;;6177459;23;20021;-35
2023/12/16 04:17:37;;;;;;;8.35;1.90;;;5.90;99.90;;;;;;6176456;23;20048;-35
2023/12/16 04:20:03;;;;;;;9.00;1.83;;;5.90;99.90;;;;;;6177480;23;20017;-35
2023/12/16 04:22:29;;;;;;;9.18;1.88;;;5.90;99.90;;;;;;6151447;23;20023;-34
2023/12/16 04:24:57;;;;;;;11.15;2.20;;;5.90;99.90;;;;;;6177470;23;20032;-35
2023/12/16 04:27:24;;;;;;;9.57;2.08;;;5.90;99.90;;;;;;6176064;23;20360;-35
2023/12/16 04:29:50;;;;;;;9.30;1.95;;;5.90;99.90;;;;;;6176576;23;20020;-34
2023/12/16 04:32:16;;;;;;;10.77;2.22;;;5.90;99.90;;;;;;6178235;23;20021;-35
2023/12/16 04:34:41;;;;;;;11.35;2.30;;;5.90;99.90;;;;;;6176959;23;20099;-34
2023/12/16 04:37:07;;;;;;;10.40;2.35;;;5.90;99.90;;;;;;6177139;23;20043;-35
2023/12/16 04:39:33;;;;;;;9.70;2.50;;;5.90;99.90;;;;;;6176372;23;20025;-34
2023/12/16 04:41:58;;;;;;;10.57;2.22;;;5.90;99.90;;;;;;6178588;23;20487;-36
2023/12/16 04:44:24;;;;;;;11.52;2.63;;;5.90;99.90;;;;;;6177326;23;20067;-34
2023/12/16 04:46:49;;;;;;;11.35;2.17;;;5.90;99.90;;;;;;6176055;23;20061;-35
2023/12/16 04:49:15;;;;;;;12.57;2.30;;;5.90;99.90;;;;;;6178254;23;20025;-34
2023/12/16 04:51:41;;;;;;;14.02;2.72;;;5.90;99.90;;;;;;6176881;23;20021;-34
2023/12/16 04:54:07;;;;;;;12.30;2.80;;;5.90;99.90;;;;;;6176256;23;20036;-34
2023/12/16 04:56:32;;;;;;;10.43;2.38;;;5.80;99.90;;;;;;6176507;23;20017;-34
2023/12/16 04:58:58;;;;;;;11.98;2.38;;;5.80;99.90;;;;;;6176962;23;20025;-34
2023/12/16 05:01:24;;;;;;;8.32;2.00;;;5.80;99.90;;;;;;6177281;23;20028;-34
2023/12/16 05:03:49;;;;;;;11.98;2.88;;;5.80;99.90;;;;;;6176514;23;20456;-35
2023/12/16 05:06:15;;;;;;;15.35;2.88;;;5.80;99.90;;;;;;6126739;23;20021;-35
2023/12/16 05:08:41;;;;;;;12.45;3.33;;;5.80;99.90;;;;;;6175705;23;20016;-35
2023/12/16 05:11:07;;;;;;;13.88;3.42;;;5.70;99.90;;;;;;6178990;23;20465;-35
2023/12/16 05:13:33;;;;;;;11.52;3.05;;;5.70;99.90;;;;;;6177725;23;20021;-35
2023/12/16 05:15:58;;;;;;;14.00;3.05;;;5.70;99.90;;;;;;6175634;23;20092;-35
2023/12/16 05:18:24;;;;;;;13.27;3.08;;;5.70;99.90;;;;;;6177530;23;20025;-34
2023/12/16 05:20:50;;;;;;;10.70;3.63;;;5.70;99.90;;;;;;6176915;23;20017;-35
2023/12/16 05:23:16;;;;;;;16.45;3.50;;;5.70;99.90;;;;;;6178462;23;20091;-34
2023/12/16 05:25:42;;;;;;;14.25;3.65;;;5.70;99.90;;;;;;6177486;23;20024;-34
2023/12/16 05:28:08;;;;;;;15.18;3.10;;;5.70;99.90;;;;;;6178340;23;20096;-35
2023/12/16 05:30:33;;;;;;;16.73;3.58;;;5.70;99.90;;;;;;6178416;23;20020;-34
2023/12/16 05:32:59;;;;;;;18.50;3.60;;;5.70;99.90;;;;;;6179447;23;20051;-34
2023/12/16 05:35:25;;;;;;;18.15;3.70;;;5.70;99.90;;;;;;6179617;23;20016;-35
2023/12/16 05:37:50;;;;;;;12.80;3.15;;;5.70;99.90;;;;;;6177142;23;20103;-34
2023/12/16 05:40:16;;;;;;;12.45;3.25;;;5.70;99.90;;;;;;6178945;23;20052;-35
2023/12/16 05:42:42;;;;;;;13.50;3.42;;;5.70;99.90;;;;;;6178808;23;20013;-35
2023/12/16 05:45:08;;;;;;;16.98;3.95;;;5.70;99.90;;;;;;6177830;23;20079;-35
2023/12/16 05:47:34;;;;;;;13.10;3.53;;;5.70;99.90;;;;;;6179591;23;20017;-35
2023/12/16 05:50:00;;;;;;;14.68;3.67;;;5.60;99.90;;;;;;6178098;23;20023;-35
2023/12/16 05:52:26;;;;;;;15.43;3.63;;;5.60;99.90;;;;;;6179752;23;20130;-35
2023/12/16 05:54:52;;;;;;;18.02;3.95;;;5.60;99.90;;;;;;6177253;23;20021;-34
2023/12/16 05:57:17;;;;;;;12.85;3.55;;;5.60;99.90;;;;;;6179414;23;20042;-35
2023/12/16 05:59:43;;;;;;;11.32;3.20;;;5.50;99.90;;;;;;6151906;23;20036;-40
2023/12/16 06:02:09;;;;;;;16.38;3.47;;;5.50;99.90;;;;;;6178159;23;20025;-35
2023/12/16 06:04:35;;;;;;;17.60;3.95;;;5.60;99.90;;;;;;6178144;23;20025;-34
2023/12/16 06:07:00;;;;;;;17.50;3.80;;;5.50;99.90;;;;;;6176636;23;20088;-34
2023/12/16 06:09:26;;;;;;;12.13;3.97;;;5.50;99.90;;;;;;6178117;23;20052;-35
2023/12/16 06:11:52;;;;;;;16.63;3.42;;;5.50;99.90;;;;;;6177360;23;20369;-34
2023/12/16 06:14:17;;;;;;;15.25;3.40;;;5.50;99.90;;;;;;6177949;23;20032;-35
2023/12/16 06:16:43;;;;;;;15.55;4.57;;;5.50;99.90;;;;;;6179200;23;20044;-34
2023/12/16 06:19:09;;;;;;;12.45;3.35;;;5.60;99.90;;;;;;6179237;23;20361;-35
2023/12/16 06:21:34;;;;;;;13.40;4.35;;;5.50;99.90;;;;;;6178818;23;20031;-35
2023/12/16 06:24:00;;;;;;;12.93;3.40;;;5.50;99.90;;;;;;6177889;23;20083;-35
2023/12/16 06:26:26;;;;;;;14.43;3.83;;;5.50;99.90;;;;;;6178424;23;20029;-34
2023/12/16 06:28:52;;;;;;;15.43;4.63;;;5.50;99.90;;;;;;6178184;23;20032;-35
2023/12/16 06:31:18;;;;;;;13.52;3.97;;;5.50;99.90;;;;;;6177121;23;20021;-35
2023/12/16 06:33:44;;;;;;;11.90;3.85;;;5.50;99.90;;;;;;6177903;23;20024;-34
2023/12/16 06:36:10;;;;;;;20.38;4.55;;;5.50;99.90;;;;;;6177854;23;20047;-35
2023/12/16 06:38:36;;;;;;;15.50;3.72;;;5.50;99.90;;;;;;6177094;23;20092;-34
2023/12/16 06:41:03;;;;;;;16.05;4.10;;;5.50;99.90;;;;;;6177326;23;20031;-34
2023/12/16 06:43:29;;;;;;;18.88;4.20;;;5.50;99.90;;;;;;6150614;23;20052;-34
2023/12/16 06:45:55;;;;;;;14.60;3.58;;;5.50;99.90;;;;;;6176495;23;20025;-35
2023/12/16 06:48:21;;;;;;;12.57;4.25;;;5.40;99.90;;;;;;6178211;23;20399;-34
2023/12/16 06:50:49;;;;;;;20.90;4.55;;;5.40;99.90;;;;;;6177588;23;20075;-36
2023/12/16 06:53:15;;;;;;;22.42;4.57;;;5.40;99.90;;;;;;6177832;23;20032;-34
2023/12/16 06:55:41;;;;;;;15.43;5.10;;;5.40;99.90;;;;;;6177747;23;20021;-34
2023/12/16 06:58:06;;;;;;;13.80;4.82;;;5.40;99.90;;;;;;6176407;23;20079;-35
2023/12/16 07:00:32;;;;;;;14.70;4.28;;;5.30;99.90;;;;;;6177850;23;20017;-34
2023/12/16 07:02:57;;;;;;;13.48;4.97;;;5.40;99.90;;;;;;6176459;23;20025;-34
2023/12/16 07:05:23;;;;;;;18.75;4.95;;;5.30;99.90;;;;;;6177834;23;20017;-35
2023/12/16 07:07:49;;;;;;;15.07;4.50;;;5.30;99.90;;;;;;6177226;23;20025;-34
2023/12/16 07:10:15;;;;;;;11.40;4.13;;;5.30;99.90;;;;;;6175396;23;20044;-34
2023/12/16 07:12:40;;;;;;;17.02;4.97;;;5.30;99.90;;;;;;6176919;23;20024;-35
2023/12/16 07:15:07;;;;;;;23.48;5.47;;;5.30;99.90;;;;;;6176494;23;20090;-34
2023/12/16 07:17:33;;;;;;;18.30;5.60;;;5.30;99.90;;;;;;6177247;23;20097;-34
2023/12/16 07:19:59;;;;;;;13.38;4.30;;;5.30;99.90;;;;;;6178239;23;20052;-34
2023/12/16 07:22:24;;;;;;;17.20;4.75;;;5.30;99.90;;;;;;6178161;23;20020;-34
2023/12/16 07:24:50;;;;;;;21.52;4.97;;;5.30;99.90;;;;;;6175489;23;20487;-35
2023/12/16 07:27:16;;;;;;;11.13;5.20;;;5.30;99.90;;;;;;6178556;23;20764;-36
2023/12/16 07:29:42;;;;;;;15.43;5.22;;;5.30;99.90;;;;;;6127251;23;20382;-35
2023/12/16 07:32:08;;;;;;;16.50;5.25;;;5.30;99.90;;;;;;6151104;23;20032;-35
2023/12/16 07:34:33;;;;;;;22.60;5.93;;;5.40;99.90;;;;;;6176422;23;20021;-35
2023/12/16 07:36:59;;;;;;;13.07;4.35;;;5.30;99.90;;;;;;6177340;23;20079;-35
2023/12/16 07:39:25;;;;;;;17.92;5.38;;;5.30;99.90;;;;;;6176837;23;20021;-35
2023/12/16 07:41:50;;;;;;;19.42;5.00;;;5.30;99.90;;;;;;6176834;23;20021;-35
2023/12/16 07:44:16;;;;;;;22.73;5.53;;;5.30;99.90;;;;;;6178937;23;20420;-35
2023/12/16 07:46:42;;;;;;;18.83;5.25;;;5.40;99.90;;;;;;6178950;23;20404;-35
2023/12/16 07:49:08;;;;;;;22.77;5.55;;;5.30;99.90;;;;;;6176981;23;20026;-44
2023/12/16 07:51:35;;;;;;;17.05;5.13;;;5.40;99.90;;;;;;6177289;23;20523;-35
2023/12/16 07:54:01;;;;;;;18.75;5.30;;;5.50;99.90;;;;;;6176832;23;20891;-35
2023/12/16 07:56:27;;;;;;;18.70;4.55;;;5.50;99.90;;;;;;6178104;23;20106;-34
2023/12/16 07:58:53;;;;;;;25.35;6.07;;;5.60;99.90;;;;;;6149048;23;20104;-35
2023/12/16 08:01:19;;;;;;;15.75;5.15;;;5.70;99.90;;;;;;6150495;23;20410;-35
2023/12/16 08:03:46;;;;;;;16.58;4.50;;;5.70;99.90;;;;;;6176137;23;20036;-34
2023/12/16 08:06:14;;;;;;;16.67;4.90;;;5.80;99.90;;;;;;6177113;23;20452;-35
2023/12/16 08:08:42;;;;;;;16.65;4.93;;;5.80;99.90;;;;;;6175717;23;20017;-35
2023/12/16 08:11:09;;;;;;;20.67;4.97;;;5.90;99.90;;;;;;6175581;23;20104;-35
2023/12/16 08:13:35;;;;;;;20.85;5.53;;;5.90;99.90;;;;;;6176171;23;20484;-34
2023/12/16 08:16:01;;;;;;;17.73;4.88;;;5.90;99.90;;;;;;6151569;23;20025;-35
2023/12/16 08:18:28;;;;;;;18.83;5.13;;;6.00;99.90;;;;;;6175468;23;20100;-34
2023/12/16 08:20:54;;;;;;;18.92;5.55;;;6.00;99.90;;;;;;6149356;23;20099;-34
2023/12/16 08:23:20;;;;;;;20.85;5.65;;;6.00;99.90;;;;;;6176352;23;20029;-35
2023/12/16 08:25:46;;;;;;;15.38;4.50;;;6.10;99.90;;;;;;6171852;23;20025;-35
2023/12/16 08:28:13;;;;;;;17.52;4.60;;;6.10;99.90;;;;;;6163112;23;20020;-35
2023/12/16 08:30:38;;;;;;;19.45;4.72;;;6.10;99.90;;;;;;6175003;23;20027;-36
2023/12/16 08:33:04;;;;;;;10.70;4.82;;;6.10;99.90;;;;;;6174644;23;20025;-35
2023/12/16 08:35:30;;;;;;;15.60;4.47;;;6.20;99.90;;;;;;6175668;23;20021;-34
2023/12/16 08:37:56;;;;;;;16.52;4.88;;;6.20;99.90;;;;;;6173302;23;20213;-34
2023/12/16 08:40:26;;;;;;;18.05;4.45;;;6.30;99.90;;;;;;6174467;23;20052;-35
2023/12/16 08:42:52;;;;;;;18.92;5.38;;;6.30;99.90;;;;;;6174860;23;20021;-36
2023/12/16 08:45:18;;;;;;;17.65;4.88;;;6.40;99.90;;;;;;6175526;23;20075;-36
2023/12/16 08:47:43;;;;;;;18.00;4.43;;;6.40;99.90;;;;;;6176041;23;20432;-35
2023/12/16 08:50:09;;;;;;;18.95;5.63;;;6.40;99.90;;;;;;6175164;23;20017;-34
2023/12/16 08:52:38;;;;;;;18.90;4.50;;;6.50;99.90;;;;;;6177252;23;20457;-34
2023/12/16 08:55:04;;;;;;;14.05;4.35;;;6.50;99.90;;;;;;6173821;23;20467;-35
2023/12/16 08:57:30;;;;;;;17.77;4.97;;;6.60;99.90;;;;;;6173625;23;20092;-35
2023/12/16 08:59:55;;;;;;;14.90;5.40;;;6.60;99.90;;;;;;6175994;23;20099;-35
2023/12/16 09:02:21;;;;;;;17.88;4.72;;;6.60;99.90;;;;;;6176264;23;20071;-36
2023/12/16 09:04:48;;;;;;;17.92;5.13;;;6.60;99.90;;;;;;6179000;23;20079;-36
2023/12/16 09:07:13;;;;;;;22.90;4.70;;;6.60;99.90;;;;;;6180014;23;20021;-34
2023/12/16 09:09:39;;;;;;;19.50;4.85;;;6.70;99.90;;;;;;6179690;23;20105;-34
2023/12/16 09:12:07;;;;;;;23.33;5.30;;;6.70;99.90;;;;;;6175657;23;20067;-34
2023/12/16 09:14:33;;;;;;;22.23;5.22;;;6.70;99.90;;;;;;6178677;23;20171;-34
2023/12/16 09:16:59;;;;;;;22.88;5.78;;;6.80;99.90;;;;;;6177463;23;20024;-35
2023/12/16 09:19:25;;;;;;;14.15;4.60;;;6.80;99.90;;;;;;6178485;23;20107;-35
2023/12/16 09:21:50;;;;;;;17.85;4.68;;;6.80;99.90;;;;;;6178522;23;20032;-36
2023/12/16 09:24:17;;;;;;;16.85;4.00;;;6.80;99.90;;;;;;6179465;23;20021;-36
2023/12/16 09:26:43;;;;;;;20.63;4.68;;;6.80;99.90;;;;;;6180343;23;20024;-35
2023/12/16 09:29:11;;;;;;;43.42;6.38;;;6.80;99.90;;;;;;6177728;23;20025;-36
2023/12/16 09:31:36;;;;;;;16.58;4.72;;;6.80;99.90;;;;;;6179152;23;20534;-35
2023/12/16 09:34:02;;;;;;;19.20;4.28;;;6.90;99.90;;;;;;6177562;23;20021;-34
2023/12/16 09:36:29;;;;;;;16.50;4.50;;;6.90;99.90;;;;;;6179632;23;20017;-35
2023/12/16 09:38:56;;;;;;;16.83;4.78;;;6.90;99.90;;;;;;6178935;23;20491;-35
2023/12/16 09:41:24;;;;;;;22.13;5.20;;;6.90;99.90;;;;;;6177068;23;20032;-35
2023/12/16 09:43:54;;;;;;;13.82;4.35;;;6.90;99.90;;;;;;6176625;23;20063;-34
2023/12/16 09:46:25;;;;;;;17.50;5.15;;;6.90;99.90;;;;;;6176468;23;20302;-34
2023/12/16 09:48:51;;;;;;;17.20;5.45;;;6.90;99.90;;;;;;6177678;23;20436;-35
2023/12/16 09:51:17;;;;;;;21.50;5.22;;;6.90;99.90;;;;;;6178310;23;20017;-35
2023/12/16 09:53:43;;;;;;;21.70;4.88;;;6.90;99.90;;;;;;6152358;23;20028;-35
2023/12/16 09:56:12;;;;;;;15.52;4.32;;;6.90;99.90;;;;;;6151378;23;20096;-34
2023/12/16 09:58:43;;;;;;;17.27;4.70;;;6.90;99.90;;;;;;6178906;23;20048;-34
2023/12/16 10:01:10;;;;;;;17.88;4.90;;;6.90;99.90;;;;;;6176569;23;20080;-34
2023/12/16 10:03:40;;;;;;;21.33;5.18;;;6.90;99.90;;;;;;6178135;23;20331;-34
2023/12/16 10:06:07;;;;;;;16.80;4.38;;;6.90;99.90;;;;;;6178022;23;20481;-34
2023/12/16 10:08:34;;;;;;;21.33;6.40;;;6.90;99.90;;;;;;6178858;23;20080;-35
2023/12/16 10:11:02;;;;;;;22.48;5.15;;;6.90;99.90;;;;;;6178266;23;20447;-34
2023/12/16 10:13:30;;;;;;;17.35;5.72;;;6.90;99.90;;;;;;6176133;23;20078;-35
2023/12/16 10:15:56;;;;;;;21.52;5.30;;;6.90;99.90;;;;;;6178664;23;20028;-35
2023/12/16 10:18:21;;;;;;;18.00;5.32;;;6.90;99.90;;;;;;6178411;23;20365;-35
2023/12/16 10:20:47;;;;;;;18.88;5.88;;;6.90;99.90;;;;;;6177873;23;20020;-35
2023/12/16 10:23:13;;;;;;;23.38;6.60;;;6.90;99.90;;;;;;6176027;23;20107;-35
2023/12/16 10:25:42;;;;;;;26.25;6.28;;;6.90;99.90;;;;;;6178483;23;20361;-42
2023/12/16 10:28:09;;;;;;;24.33;6.80;;;6.90;99.90;;;;;;6177906;23;20017;-34
2023/12/16 10:30:35;;;;;;;23.90;6.07;;;6.90;99.90;;;;;;6151999;23;20016;-35
2023/12/16 10:33:03;;;;;;;27.40;6.63;;;6.90;99.90;;;;;;6176754;23;20084;-35
2023/12/16 10:35:33;;;;;;;24.00;6.60;;;6.90;99.90;;;;;;6178520;23;20079;-35
2023/12/16 10:37:59;;;;;;;28.30;6.72;;;6.90;99.90;;;;;;6178253;23;20048;-34
2023/12/16 10:40:26;;;;;;;28.13;6.47;;;6.90;99.90;;;;;;6175216;23;20021;-35
2023/12/16 10:42:52;;;;;;;22.75;7.13;;;6.90;99.90;;;;;;6177444;23;20025;-35
2023/12/16 10:45:18;;;;;;;25.77;7.88;;;6.90;99.90;;;;;;6178548;23;20013;-35
2023/12/16 10:47:48;;;;;;;21.70;7.35;;;6.90;99.90;;;;;;6176202;23;20047;-35
2023/12/16 10:50:15;;;;;;;34.40;7.53;;;6.90;99.90;;;;;;6177654;23;20401;-35
2023/12/16 10:53:02;;;;;;;27.60;9.05;;;6.90;99.90;;;;;;6178540;23;20084;-35
2023/12/16 10:55:31;;;;;;;32.45;9.15;;;6.90;99.90;;;;;;6177863;23;20491;-35
2023/12/16 10:58:16;;;;;;;33.50;8.45;;;6.90;99.90;;;;;;6176793;23;20456;-35
2023/12/16 11:00:45;;;;;;;36.25;8.88;;;7.00;99.90;;;;;;6177479;23;20017;-35
2023/12/16 11:03:15;;;;;;;32.83;9.38;;;6.90;99.90;;;;;;6178452;23;20027;-35
2023/12/16 11:05:52;;;;;;;38.08;8.68;;;7.00;99.90;;;;;;6176764;23;20043;-35
2023/12/16 11:08:19;;;;;;;30.98;9.95;;;7.00;99.90;;;;;;6177514;23;20032;-34
2023/12/16 11:10:45;;;;;;;27.60;9.27;;;7.00;99.90;;;;;;6177875;23;20017;-35
2023/12/16 11:13:11;;;;;;;40.55;11.80;;;7.00;99.90;;;;;;6177196;23;20016;-35
2023/12/16 11:15:38;;;;;;;43.17;11.82;;;7.10;99.90;;;;;;6175732;23;20042;-35
2023/12/16 11:18:26;;;;;;;38.13;11.05;;;7.10;99.90;;;;;;6150833;23;20020;-35
2023/12/16 11:20:56;;;;;;;44.38;13.90;;;7.10;99.90;;;;;;6172917;23;20564;-35
2023/12/16 11:23:23;;;;;;;51.95;13.05;;;7.20;99.90;;;;;;6177753;23;20036;-35
2023/12/16 11:25:52;;;;;;;46.40;12.80;;;7.20;99.90;;;;;;6177622;23;20076;-35
2023/12/16 11:28:18;;;;;;;50.38;12.80;;;7.20;99.90;;;;;;6177430;23;20457;-35
2023/12/16 11:30:44;;;;;;;50.22;13.32;;;7.20;99.90;;;;;;6176872;23;20013;-35
2023/12/16 11:33:11;;;;;;;52.70;14.23;;;7.30;99.90;;;;;;6175343;23;20028;-35
2023/12/16 11:35:37;;;;;;;50.35;13.77;;;7.20;99.90;;;;;;6176070;23;20445;-36
2023/12/16 11:38:06;;;;;;;42.60;13.52;;;7.20;99.90;;;;;;6176429;23;20082;-35
2023/12/16 11:40:40;;;;;;;52.20;14.07;;;7.30;99.90;;;;;;6176998;23;20071;-35
2023/12/16 11:43:06;;;;;;;41.67;12.50;;;7.30;99.90;;;;;;6151226;23;20023;-35
2023/12/16 11:45:39;;;;;;;52.70;13.98;;;7.30;99.90;;;;;;6176891;23;20017;-35
2023/12/16 11:48:06;;;;;;;44.88;14.07;;;7.30;99.90;;;;;;6175605;23;20016;-35
2023/12/16 11:50:42;;;;;;;48.33;14.68;;;7.30;99.90;;;;;;6176572;23;20024;-35
2023/12/16 11:53:09;;;;;;;44.60;14.00;;;7.40;99.90;;;;;;6150344;23;20020;-35
2023/12/16 11:55:35;;;;;;;47.42;14.30;;;7.40;99.90;;;;;;6174647;23;20025;-35
2023/12/16 11:58:02;;;;;;;51.75;15.85;;;7.40;99.90;;;;;;6178588;23;20016;-35
2023/12/16 12:00:29;;;;;;;53.95;16.08;;;7.40;99.90;;;;;;6149963;23;20108;-35
2023/12/16 12:02:56;;;;;;;66.25;16.50;;;7.50;99.90;;;;;;6176004;23;20022;-35
2023/12/16 12:05:22;;;;;;;64.88;18.05;;;7.50;99.90;;;;;;6148202;23;20099;-36
2023/12/16 12:07:48;;;;;;;63.20;18.48;;;7.50;99.90;;;;;;6178767;23;20048;-35
2023/12/16 12:10:14;;;;;;;46.55;15.88;;;7.60;99.90;;;;;;6150150;23;20013;-35
2023/12/16 12:12:39;;;;;;;55.33;16.25;;;7.60;99.90;;;;;;6177088;23;20465;-35
2023/12/16 12:15:08;;;;;;;55.80;16.27;;;7.60;99.90;;;;;;6151132;23;20040;-34
2023/12/16 12:17:34;;;;;;;50.90;15.65;;;7.60;99.90;;;;;;6176769;23;20472;-35
2023/12/16 12:20:00;;;;;;;53.55;15.90;;;7.60;99.90;;;;;;6177947;23;20025;-36
2023/12/16 12:22:25;;;;;;;45.85;15.18;;;7.70;99.90;;;;;;6147000;23;20087;-35
2023/12/16 12:24:51;;;;;;;61.65;18.65;;;7.60;99.90;;;;;;6175520;23;20055;-36
2023/12/16 12:27:20;;;;;;;62.40;18.05;;;7.70;99.90;;;;;;6177383;23;20021;-36
2023/12/16 12:29:52;;;;;;;56.08;17.38;;;7.70;99.90;;;;;;6171356;23;20103;-36
2023/12/16 12:32:18;;;;;;;49.38;17.25;;;7.80;99.90;;;;;;6176524;23;20025;-35
2023/12/16 12:34:44;;;;;;;42.80;16.08;;;7.90;99.90;;;;;;6152462;23;20032;-36
2023/12/16 12:37:10;;;;;;;47.83;16.38;;;7.90;99.90;;;;;;6180130;23;20021;-35
2023/12/16 12:39:35;;;;;;;52.65;17.77;;;7.90;99.90;;;;;;6178528;23;20028;-35
2023/12/16 12:42:02;;;;;;;47.67;16.17;;;8.00;99.90;;;;;;6177731;23;20542;-35
2023/12/16 12:44:30;;;;;;;45.35;15.38;;;8.00;99.90;;;;;;6179415;23;20024;-36